Time;durP1;ratioP1;P1;durP2;ratioP2;P2;SDS_P1;SDS_P2;PMS_P1;PMS_P2;Temp;Humidity;BMP_temperature;BMP_pressure;BME280_temperature;BME280_humidity;BME280_pressure;Samples;Min_cycle;Max_cycle;Signal;HPM_P1;HPM_P2
2023/01/17 00:01:05;;;;;;;;;10.33;10.00;;;;;14.27;74.86;98482.31;5099638;27;45696;-79
2023/01/17 00:03:31;;;;;;;;;10.67;10.67;;;;;14.36;74.86;98482.66;5101200;27;45305;-79
2023/01/17 00:11:24;;;;;;;;;14.00;11.33;;;;;14.43;75.42;98474.44;5100951;27;45381;-79
2023/01/17 00:13:50;;;;;;;;;13.00;13.00;;;;;14.51;75.36;98477.44;5082203;27;45484;-79
2023/01/17 00:16:15;;;;;;;;;10.00;10.00;;;;;14.42;75.09;98459.47;5100973;27;45440;-79
2023/01/17 00:26:01;;;;;;;;;12.33;10.33;;;;;14.45;74.63;98459.75;5100405;27;45229;-79
2023/01/17 01:33:38;;;;;;;;;20.00;19.50;;;;;13.41;73.30;98432.03;5099213;27;45796;-79
2023/01/17 01:36:06;;;;;;;;;22.25;22.00;;;;;13.34;73.84;98434.09;5080931;27;46017;-79
2023/01/17 01:38:32;;;;;;;;;21.00;21.00;;;;;13.35;73.66;98425.06;5099445;27;45321;-79
2023/01/17 01:40:57;;;;;;;;;22.33;19.67;;;;;13.34;73.40;98428.75;5080932;27;47616;-79
2023/01/17 01:43:40;;;;;;;;;1.00;1.00;;;;;13.34;73.05;98420.75;5099265;27;45325;-79
2023/01/17 01:46:06;;;;;;;;;17.00;15.33;;;;;13.19;73.26;98408.06;5099270;27;45329;-79
2023/01/17 01:48:38;;;;;;;;;15.00;15.00;;;;;13.17;73.69;98410.97;5099398;27;46348;-79
2023/01/17 01:51:08;;;;;;;;;13.00;13.00;;;;;13.09;72.63;98395.41;5099249;27;45316;-79
2023/01/17 01:53:37;;;;;;;;;13.33;13.33;;;;;13.09;73.30;98406.09;5098765;27;47340;-79
2023/01/17 01:56:09;;;;;;;;;14.00;13.00;;;;;12.99;73.32;98394.22;5099228;27;45456;-79
2023/01/17 01:58:36;;;;;;;;;14.33;13.33;;;;;12.96;73.23;98408.06;5099415;27;45365;-79
2023/01/17 02:01:04;;;;;;;;;12.67;12.67;;;;;12.92;73.72;98406.13;5099164;27;45215;-79
2023/01/17 02:03:31;;;;;;;;;12.67;12.67;;;;;12.90;73.52;98408.25;5097983;27;48536;-79
2023/01/17 02:06:23;;;;;;;;;18.67;16.33;;;;;12.94;73.42;98406.69;5097787;27;45406;-79
2023/01/17 02:08:49;;;;;;;;;14.33;12.00;;;;;12.86;73.50;98402.59;5080286;27;45518;-79
2023/01/17 02:11:14;;;;;;;;;12.00;12.00;;;;;12.71;73.87;98388.00;5080387;27;46180;-79
2023/01/17 02:13:40;;;;;;;;;14.00;12.33;;;;;12.77;74.03;98393.41;5099080;27;46301;-79
2023/01/17 02:16:27;;;;;;;;;14.00;14.00;;;;;12.78;73.78;98390.50;5080694;27;45342;-79
2023/01/17 02:19:11;;;;;;;;;13.00;12.75;;;;;12.72;73.92;98391.50;5102254;27;45367;-79
2023/01/17 02:21:45;;;;;;;;;12.67;12.67;;;;;12.70;74.11;98389.09;5100771;27;47023;-79
2023/01/17 02:24:36;;;;;;;;;11.25;11.25;;;;;12.71;73.97;98387.19;5083817;27;46486;-79
2023/01/17 02:27:19;;;;;;;;;14.33;12.00;;;;;12.70;73.98;98372.28;5083854;27;46043;-79
2023/01/17 02:30:15;;;;;;;;;13.00;13.00;;;;;12.70;74.27;98366.94;5102376;27;45334;-79
2023/01/17 02:32:41;;;;;;;;;15.25;12.25;;;;;12.67;74.07;98354.09;5102243;27;45677;-80
2023/01/17 02:35:28;;;;;;;;;12.00;12.00;;;;;12.61;73.84;98347.91;5104270;27;47731;-79
2023/01/17 02:38:30;;;;;;;;;14.67;13.00;;;;;12.66;74.02;98350.63;5102387;27;45279;-79
2023/01/17 02:41:06;;;;;;;;;12.00;8.67;;;;;12.62;74.31;98342.34;5091996;27;45466;-79
2023/01/17 02:43:33;;;;;;;;;12.67;10.67;;;;;12.53;73.87;98325.16;5101991;27;45353;-79
2023/01/17 02:45:58;;;;;;;;;12.50;11.50;;;;;12.57;73.51;98322.81;5090146;27;46170;-79
2023/01/17 02:48:29;;;;;;;;;15.67;13.33;;;;;12.64;73.13;98331.44;5081750;27;45419;-80
2023/01/17 02:51:25;;;;;;;;;16.25;13.50;;;;;12.55;73.62;98323.06;5102309;27;45342;-79
2023/01/17 02:54:44;;;;;;;;;12.00;12.00;;;;;12.53;73.52;98314.50;5091448;27;45360;-79
2023/01/17 02:57:31;;;;;;;;;11.00;11.00;;;;;12.50;73.73;98310.47;5018582;28;47052;-79
2023/01/17 03:00:07;;;;;;;;;11.67;11.00;;;;;12.40;73.22;98288.22;5002185;28;45318;-79
2023/01/17 03:02:56;;;;;;;;;13.25;11.50;;;;;12.43;73.76;98288.53;5065352;27;45495;-80
2023/01/17 03:05:43;;;;;;;;;13.75;13.00;;;;;12.45;73.44;98290.97;5101909;27;45321;-80
2023/01/17 03:08:10;;;;;;;;;18.75;17.25;;;;;12.43;73.83;98285.06;5089080;27;45236;-79
2023/01/17 03:10:35;;;;;;;;;19.75;19.50;;;;;12.34;73.87;98274.03;5101774;27;45281;-79
2023/01/17 03:13:02;;;;;;;;;21.00;17.75;;;;;12.40;74.24;98269.56;5101570;27;45327;-79
2023/01/17 03:15:28;;;;;;;;;18.50;18.00;;;;;12.42;74.10;98276.25;5100162;27;47409;-79
2023/01/17 03:17:59;;;;;;;;;14.50;12.25;;;;;12.36;73.92;98258.59;5100185;27;45360;-79
2023/01/17 03:20:24;;;;;;;;;21.00;16.50;;;;;12.31;73.80;98247.91;5083157;27;45308;-79
2023/01/17 03:22:50;;;;;;;;;13.75;13.75;;;;;12.43;73.64;98253.91;5101530;27;45207;-79
2023/01/17 03:25:16;;;;;;;;;15.67;13.00;;;;;12.35;73.22;98235.69;5101431;27;45277;-79
2023/01/17 03:27:41;;;;;;;;;13.00;12.00;;;;;12.33;73.22;98246.59;5082858;27;47685;-79
2023/01/17 03:30:07;;;;;;;;;14.33;12.67;;;;;12.40;73.01;98251.75;5101111;27;45373;-79
2023/01/17 03:32:33;;;;;;;;;13.50;11.75;;;;;12.35;72.71;98247.16;5101503;27;45507;-79
2023/01/17 03:34:58;;;;;;;;;13.50;12.75;;;;;12.31;73.25;98239.91;5100997;27;45554;-79
2023/01/17 03:37:23;;;;;;;;;13.00;11.50;;;;;12.37;73.52;98245.03;5082852;27;46878;-79
2023/01/17 03:39:49;;;;;;;;;13.67;11.00;;;;;12.29;73.57;98231.34;5101308;27;45317;-79
2023/01/17 03:42:14;;;;;;;;;10.67;9.33;;;;;12.25;73.68;98234.50;5101566;27;45404;-79
2023/01/17 03:44:39;;;;;;;;;10.33;10.33;;;;;12.15;73.62;98215.72;5101102;27;45370;-79
2023/01/17 03:47:05;;;;;;;;;10.33;9.67;;;;;12.27;74.11;98241.47;5109914;27;47189;-79
2023/01/17 03:49:30;;;;;;;;;15.67;12.67;;;;;12.20;74.07;98230.97;5076401;27;45384;-79
2023/01/17 03:51:55;;;;;;;;;11.00;11.00;;;;;12.25;74.52;98229.16;5101112;27;45335;-78
2023/01/17 03:54:20;;;;;;;;;5.00;1.33;;;;;12.28;74.80;98227.91;5101055;27;45361;-79
2023/01/17 03:56:46;;;;;;;;;12.33;9.33;;;;;12.33;75.00;98232.47;5101090;27;46689;-79
2023/01/17 03:59:11;;;;;;;;;11.33;11.00;;;;;12.44;74.20;98228.06;5099513;27;45598;-79
2023/01/17 04:01:36;;;;;;;;;11.00;9.33;;;;;12.42;74.02;98219.53;5100003;27;45378;-79
2023/01/17 04:04:02;;;;;;;;;9.33;8.00;;;;;12.45;73.87;98224.38;5100963;27;45371;-80
2023/01/17 04:06:27;;;;;;;;;8.33;8.33;;;;;12.37;74.68;98221.06;5100513;27;46360;-79
2023/01/17 04:08:53;;;;;;;;;8.00;8.00;;;;;12.40;74.84;98224.28;5101051;27;45259;-79
2023/01/17 04:11:19;;;;;;;;;13.00;11.00;;;;;12.44;75.13;98226.22;5101150;27;45475;-79
2023/01/17 04:13:44;;;;;;;;;11.00;9.67;;;;;12.45;74.92;98217.16;5082328;27;46292;-79
2023/01/17 04:16:16;;;;;;;;;15.33;13.33;;;;;12.45;75.02;98209.16;5100625;27;45306;-79
2023/01/17 04:18:42;;;;;;;;;12.33;12.00;;;;;12.46;74.79;98213.47;5082229;27;45465;-79
2023/01/17 04:21:07;;;;;;;;;8.33;8.00;;;;;12.48;74.51;98216.66;5100909;27;45349;-79
2023/01/17 04:23:34;;;;;;;;;10.33;10.33;;;;;12.48;74.84;98210.56;5100396;27;45266;-79
2023/01/17 04:25:59;;;;;;;;;10.33;10.33;;;;;12.52;74.77;98206.34;5100540;27;45534;-79
2023/01/17 04:28:24;;;;;;;;;11.67;10.33;;;;;12.51;74.28;98210.03;5100389;27;45252;-79
2023/01/17 04:30:50;;;;;;;;;9.67;9.33;;;;;12.51;74.65;98210.03;5082378;27;45472;-79
2023/01/17 04:33:17;;;;;;;;;11.00;11.00;;;;;12.51;75.04;98210.03;5100300;27;45452;-79
2023/01/17 04:35:42;;;;;;;;;12.33;8.33;;;;;12.42;74.84;98191.03;5100536;27;46085;-79
2023/01/17 04:38:07;;;;;;;;;8.00;8.00;;;;;12.49;74.95;98190.84;5100180;27;45439;-79
2023/01/17 04:40:33;;;;;;;;;11.67;10.67;;;;;12.53;75.07;98191.94;5098215;27;45286;-79
2023/01/17 04:42:59;;;;;;;;;10.33;10.33;;;;;12.57;74.82;98200.25;5100243;27;46423;-79
2023/01/17 04:45:24;;;;;;;;;9.33;7.00;;;;;12.56;74.50;98195.97;5078148;27;47986;-79
2023/01/17 04:47:50;;;;;;;;;11.33;8.67;;;;;12.53;74.73;98181.28;5093081;27;45360;-79
2023/01/17 04:50:16;;;;;;;;;12.33;11.00;;;;;12.55;74.28;98192.50;5100138;27;45392;-79
2023/01/17 04:52:41;;;;;;;;;10.67;10.33;;;;;12.47;74.41;98179.63;5099858;27;45367;-79
2023/01/17 04:55:07;;;;;;;;;12.67;11.67;;;;;12.54;74.44;98192.75;5099765;27;45371;-79
2023/01/17 04:57:32;;;;;;;;;12.67;12.67;;;;;12.54;74.02;98187.44;5100303;27;45370;-79
2023/01/17 04:59:58;;;;;;;;;12.67;8.67;;;;;12.65;74.17;98183.00;5081644;27;45292;-79
2023/01/17 05:02:23;;;;;;;;;13.00;12.00;;;;;12.64;74.40;98190.22;5098735;27;47215;-79
2023/01/17 05:04:49;;;;;;;;;12.33;9.33;;;;;12.67;74.39;98194.22;5099945;27;45372;-79
2023/01/17 05:07:14;;;;;;;;;12.67;11.33;;;;;12.62;74.31;98184.31;5099920;27;45285;-79
2023/01/17 05:09:39;;;;;;;;;12.67;10.33;;;;;12.63;73.87;98186.72;5099924;27;45283;-79
2023/01/17 05:12:05;;;;;;;;;11.00;11.00;;;;;12.56;74.22;98167.47;5099987;27;45261;-79
2023/01/17 05:14:33;;;;;;;;;12.00;11.00;;;;;12.54;74.35;98158.13;5081027;27;47248;-79
2023/01/17 05:16:58;;;;;;;;;15.33;13.00;;;;;12.73;74.28;98167.38;5100023;27;45496;-79
2023/01/17 05:19:25;;;;;;;;;12.00;11.00;;;;;12.75;74.53;98165.25;5099756;27;45313;-79
2023/01/17 05:21:50;;;;;;;;;12.00;11.33;;;;;12.84;74.24;98167.47;5099644;27;45561;-79
2023/01/17 05:24:17;;;;;;;;;15.00;13.00;;;;;12.88;74.86;98171.25;5099532;27;45364;-79
2023/01/17 05:26:43;;;;;;;;;13.67;11.67;;;;;12.97;74.48;98166.25;5099741;27;45422;-79
2023/01/17 05:29:09;;;;;;;;;12.00;10.67;;;;;12.94;74.15;98148.09;5099500;27;45475;-79
2023/01/17 05:31:35;;;;;;;;;11.00;10.33;;;;;12.99;74.45;98151.59;5099404;27;46477;-78
2023/01/17 05:34:00;;;;;;;;;12.67;12.67;;;;;12.98;74.12;98144.69;5098915;27;46345;-79
2023/01/17 05:36:26;;;;;;;;;11.33;9.67;;;;;13.01;73.90;98138.03;5099422;27;45298;-79
2023/01/17 05:38:51;;;;;;;;;9.00;8.33;;;;;13.02;73.93;98138.84;5099497;27;45302;-78
2023/01/17 05:41:16;;;;;;;;;12.67;11.00;;;;;13.04;73.91;98140.19;5099692;27;45366;-79
2023/01/17 05:43:42;;;;;;;;;11.33;10.00;;;;;12.98;73.81;98133.19;5081017;27;47289;-79
2023/01/17 05:46:07;;;;;;;;;13.00;11.00;;;;;13.10;73.21;98135.69;5086901;27;45367;-79
2023/01/17 05:48:32;;;;;;;;;10.33;10.33;;;;;13.04;72.80;98132.19;5098170;27;45400;-79
2023/01/17 05:50:58;;;;;;;;;13.00;12.00;;;;;12.99;72.83;98127.63;5098354;27;46072;-79
2023/01/17 05:53:23;;;;;;;;;12.67;12.00;;;;;12.96;72.66;98117.47;5102550;27;45295;-79
2023/01/17 05:55:48;;;;;;;;;12.67;12.67;;;;;12.80;72.22;98105.88;5084866;27;46027;-80
2023/01/17 05:58:16;;;;;;;;;12.33;11.67;;;;;12.86;72.21;98133.38;5102805;27;45478;-78
2023/01/17 06:00:42;;;;;;;;;12.00;12.00;;;;;12.88;72.55;98124.06;5103099;27;45475;-79
2023/01/17 06:03:08;;;;;;;;;12.67;10.33;;;;;12.87;72.42;98125.13;5100978;27;46666;-79
2023/01/17 06:05:34;;;;;;;;;14.67;11.00;;;;;12.82;72.64;98125.09;5103076;27;45190;-79
2023/01/17 06:07:59;;;;;;;;;10.00;10.00;;;;;12.82;72.34;98118.94;5083984;27;45309;-79
2023/01/17 06:10:26;;;;;;;;;13.00;12.00;;;;;12.76;72.68;98107.44;5084573;27;45923;-79
2023/01/17 06:13:06;;;;;;;;;11.00;11.00;;;;;12.84;72.42;98116.84;5102170;27;46286;-79
2023/01/17 06:15:34;;;;;;;;;18.33;14.33;;;;;12.72;72.39;98103.69;5084138;27;45320;-79
2023/01/17 06:18:06;;;;;;;;;18.67;11.67;;;;;12.71;72.30;98094.88;5101383;27;45360;-79
2023/01/17 06:20:32;;;;;;;;;16.00;13.67;;;;;12.68;72.32;98092.72;5102441;27;45493;-79
2023/01/17 06:23:03;;;;;;;;;16.67;15.33;;;;;12.80;71.91;98099.72;5102277;27;45266;-79
2023/01/17 06:25:29;;;;;;;;;18.00;14.33;;;;;12.63;72.19;98096.13;5083805;27;45334;-79
2023/01/17 06:27:55;;;;;;;;;14.67;12.33;;;;;12.67;73.08;98100.97;5101206;27;45394;-80
2023/01/17 06:30:20;;;;;;;;;14.33;12.33;;;;;12.66;73.18;98097.47;5102098;27;45574;-79
2023/01/17 06:32:55;;;;;;;;;13.67;11.00;;;;;12.74;73.64;98089.03;5102311;27;45477;-79
2023/01/17 06:35:21;;;;;;;;;17.33;15.00;;;;;12.75;73.85;98092.50;5101999;27;45427;-80
2023/01/17 06:37:51;;;;;;;;;21.00;16.25;;;;;12.78;73.50;98097.31;5102337;27;45376;-79
2023/01/17 06:40:17;;;;;;;;;16.00;13.50;;;;;12.90;74.01;98099.03;5083810;27;45284;-78
2023/01/17 06:42:43;;;;;;;;;19.67;18.67;;;;;13.03;73.95;98108.44;5102035;27;45495;-80
2023/01/17 06:45:08;;;;;;;;;14.75;14.75;;;;;13.05;73.97;98107.13;5101977;27;45438;-81
2023/01/17 06:47:38;;;;;;;;;19.33;18.00;;;;;13.06;73.38;98094.59;5100928;27;45437;-79
2023/01/17 06:50:05;;;;;;;;;23.75;20.00;;;;;13.06;73.57;98091.94;5083503;27;47240;-80
2023/01/17 06:52:30;;;;;;;;;19.25;18.00;;;;;13.10;73.82;98103.69;5101629;27;46755;-79
2023/01/17 06:54:55;;;;;;;;;17.33;16.67;;;;;13.11;73.58;98090.09;5101978;27;45387;-79
2023/01/17 06:57:21;;;;;;;;;21.25;18.25;;;;;13.25;73.57;98098.47;5102176;27;45192;-79
2023/01/17 06:59:46;;;;;;;;;17.33;16.67;;;;;13.21;73.74;98093.91;5101710;27;45498;-79
2023/01/17 07:02:12;;;;;;;;;19.00;17.67;;;;;13.25;74.09;98098.47;5083452;27;46970;-79
2023/01/17 07:04:37;;;;;;;;;20.67;20.67;;;;;13.36;73.89;98104.69;5099572;27;45476;-79
2023/01/17 07:07:02;;;;;;;;;22.00;18.00;;;;;13.37;73.55;98097.47;5101720;27;45347;-79
2023/01/17 07:09:27;;;;;;;;;21.00;20.75;;;;;13.39;73.38;98098.03;5101668;27;45369;-78
2023/01/17 07:11:58;;;;;;;;;20.25;19.00;;;;;13.42;73.43;98105.53;5101823;27;45345;-79
2023/01/17 07:14:24;;;;;;;;;24.50;19.75;;;;;13.50;73.08;98106.94;5100216;27;46097;-79
2023/01/17 07:16:50;;;;;;;;;21.25;19.50;;;;;13.43;73.12;98098.28;5101916;27;45234;-79
2023/01/17 07:19:15;;;;;;;;;19.00;19.00;;;;;13.43;73.43;98100.97;5101301;27;45263;-79
2023/01/17 07:21:40;;;;;;;;;17.75;17.75;;;;;13.45;73.26;98098.84;5082973;27;47629;-79
2023/01/17 07:24:06;;;;;;;;;19.75;18.50;;;;;13.48;73.20;98109.00;5101523;27;45498;-78
2023/01/17 07:26:32;;;;;;;;;23.25;22.25;;;;;13.37;72.97;98094.81;5101981;27;45334;-79
2023/01/17 07:28:57;;;;;;;;;20.25;19.00;;;;;13.39;73.16;98100.69;5100927;27;45464;-79
2023/01/17 07:31:23;;;;;;;;;17.00;17.00;;;;;13.39;73.51;98096.16;5101464;27;45386;-79
2023/01/17 07:33:51;;;;;;;;;18.00;14.00;;;;;13.41;73.81;98093.22;5082650;27;45319;-79
2023/01/17 07:36:16;;;;;;;;;20.00;19.67;;;;;13.45;74.33;98088.19;5082898;27;45374;-79
2023/01/17 07:38:43;;;;;;;;;19.25;18.00;;;;;13.52;74.09;98096.00;5100973;27;45344;-78
2023/01/17 07:41:09;;;;;;;;;24.00;22.00;;;;;13.61;73.68;98097.09;5101118;27;45722;-79
2023/01/17 07:43:34;;;;;;;;;20.75;19.75;;;;;13.63;73.74;98092.31;5101074;27;45349;-79
2023/01/17 07:45:59;;;;;;;;;19.33;18.33;;;;;13.70;73.63;98103.56;5083062;27;45436;-78
2023/01/17 07:48:25;;;;;;;;;20.33;17.67;;;;;13.66;72.97;98102.47;5100917;27;45513;-79
2023/01/17 07:50:55;;;;;;;;;20.75;18.75;;;;;13.61;73.88;98089.09;5101068;27;45325;-79
2023/01/17 07:53:26;;;;;;;;;24.00;20.00;;;;;13.77;74.05;98103.34;5099435;27;45344;-79
2023/01/17 07:55:52;;;;;;;;;22.75;20.25;;;;;13.81;73.62;98103.59;5101874;27;45336;-77
2023/01/17 07:58:21;;;;;;;;;24.00;23.50;;;;;13.81;72.92;98111.59;5082493;27;46006;-79
2023/01/17 08:00:46;;;;;;;;;22.00;22.00;;;;;13.79;73.15;98111.06;5082624;27;47082;-78
2023/01/17 08:03:14;;;;;;;;;20.67;20.00;;;;;13.87;73.56;98116.72;5100014;27;45243;-80
2023/01/17 08:05:52;;;;;;;;;19.75;16.75;;;;;13.89;73.23;98121.81;5082535;27;45331;-78
2023/01/17 08:08:17;;;;;;;;;19.67;18.67;;;;;13.88;73.21;98101.50;5070599;27;46207;-78
2023/01/17 08:10:42;;;;;;;;;19.00;19.00;;;;;13.90;72.70;98102.03;5100561;27;46024;-79
2023/01/17 08:13:08;;;;;;;;;20.25;18.25;;;;;14.01;73.26;98111.69;5100759;27;45365;-78
2023/01/17 08:15:33;;;;;;;;;23.00;20.75;;;;;14.09;73.02;98113.06;5098243;27;45417;-79
2023/01/17 08:17:59;;;;;;;;;21.00;19.33;;;;;14.11;72.79;98107.44;5082512;27;47309;-79
2023/01/17 08:20:25;;;;;;;;;26.00;19.33;;;;;14.14;72.39;98117.63;5100628;27;46131;-78
2023/01/17 08:22:53;;;;;;;;;24.67;22.33;;;;;14.16;71.68;98106.66;5100479;27;45345;-78
2023/01/17 08:25:19;;;;;;;;;22.50;22.00;;;;;14.14;71.79;98104.25;5100721;27;45279;-79
2023/01/17 08:27:44;;;;;;;;;23.00;15.33;;;;;14.10;71.96;98109.31;5099565;27;45472;-79
2023/01/17 08:30:10;;;;;;;;;20.00;18.67;;;;;14.06;71.73;98110.09;5104596;27;45436;-79
2023/01/17 08:32:39;;;;;;;;;18.67;16.33;;;;;14.02;71.64;98109.84;5100560;27;45276;-79
2023/01/17 08:35:05;;;;;;;;;19.00;17.00;;;;;14.03;72.21;98111.44;5098974;27;45401;-79
2023/01/17 08:37:30;;;;;;;;;14.33;13.00;;;;;14.05;71.44;98109.31;5099728;27;46084;-79
2023/01/17 08:39:56;;;;;;;;;18.67;15.67;;;;;14.04;71.92;98115.72;5099679;27;45286;-79
2023/01/17 08:42:21;;;;;;;;;14.00;13.67;;;;;14.00;72.30;98112.75;5100020;27;45326;-78
2023/01/17 08:44:46;;;;;;;;;21.33;16.00;;;;;14.11;73.40;98116.28;5098762;27;45410;-79
2023/01/17 08:47:11;;;;;;;;;16.00;15.00;;;;;13.99;73.19;98103.16;5081947;27;46281;-79
2023/01/17 08:49:37;;;;;;;;;19.67;15.33;;;;;14.14;73.33;98107.75;5099973;27;46407;-78
2023/01/17 08:52:04;;;;;;;;;17.33;15.33;;;;;14.23;73.52;98112.56;5100105;27;45236;-80
2023/01/17 08:54:29;;;;;;;;;20.67;17.33;;;;;14.34;73.21;98119.53;5100458;27;45334;-78
2023/01/17 08:56:54;;;;;;;;;17.67;17.33;;;;;14.34;73.60;98108.84;5098782;27;46375;-78
2023/01/17 08:59:20;;;;;;;;;17.00;17.00;;;;;14.37;72.75;98104.84;5099756;27;46032;-78
2023/01/17 09:01:45;;;;;;;;;16.33;15.67;;;;;14.40;73.20;98093.66;5100166;27;45312;-79
2023/01/17 09:04:12;;;;;;;;;25.75;25.50;;;;;14.50;73.57;98096.34;5098791;27;45286;-77
2023/01/17 09:06:38;;;;;;;;;16.67;16.00;;;;;14.56;73.64;98096.31;5099666;27;45489;-77
2023/01/17 09:09:06;;;;;;;;;17.00;17.00;;;;;14.52;73.18;98064.78;5095020;27;46339;-77
2023/01/17 09:11:32;;;;;;;;;19.50;19.00;;;;;14.68;72.63;98074.69;5091870;27;45419;-77
2023/01/17 09:13:57;;;;;;;;;11.67;10.67;;;;;14.69;73.17;98071.75;5099673;27;45219;-77
2023/01/17 09:16:23;;;;;;;;;19.67;17.33;;;;;14.81;72.86;98076.84;5099794;27;45290;-77
2023/01/17 09:18:52;;;;;;;;;16.33;16.33;;;;;14.76;72.59;98066.16;5098270;27;47262;-77
2023/01/17 09:21:17;;;;;;;;;18.33;13.67;;;;;14.70;73.33;98057.31;5098472;27;45661;-77
2023/01/17 09:23:43;;;;;;;;;11.67;11.67;;;;;14.85;73.10;98071.78;5098277;27;45390;-77
2023/01/17 09:26:19;;;;;;;;;15.00;12.00;;;;;14.85;72.99;98067.22;5097793;27;45991;-77
2023/01/17 09:28:45;;;;;;;;;16.00;14.33;;;;;14.84;73.52;98068.31;5081064;27;47431;-77
2023/01/17 09:31:10;;;;;;;;;16.33;14.00;;;;;14.88;73.24;98066.69;5099505;27;45327;-77
2023/01/17 09:33:37;;;;;;;;;16.00;16.00;;;;;14.98;72.98;98065.09;5099505;27;45325;-77
2023/01/17 09:36:04;;;;;;;;;11.00;10.00;;;;;14.97;73.32;98066.94;5099528;27;45560;-76
2023/01/17 09:38:30;;;;;;;;;9.67;8.33;;;;;15.10;73.36;98059.44;5078187;27;47355;-77
2023/01/17 09:40:56;;;;;;;;;16.33;16.00;;;;;15.21;73.36;98052.22;5070816;27;45219;-78
2023/01/17 09:43:44;;;;;;;;;14.33;14.33;;;;;15.34;73.54;98070.38;5099418;27;45298;-75
2023/01/17 09:46:21;;;;;;;;;11.33;9.67;;;;;15.48;72.96;98075.94;5099196;27;45484;-75
2023/01/17 09:48:55;;;;;;;;;14.00;12.33;;;;;15.37;72.69;98069.03;5099213;27;47146;-75
2023/01/17 09:51:25;;;;;;;;;11.67;11.00;;;;;15.48;72.55;98072.50;5080395;27;45579;-74
2023/01/17 09:53:52;;;;;;;;;12.33;12.33;;;;;15.49;72.71;98096.31;5081015;27;45371;-77
2023/01/17 09:56:21;;;;;;;;;9.33;9.33;;;;;15.48;72.09;98078.63;5080607;27;45453;-77
2023/01/17 09:59:12;;;;;;;;;10.00;10.00;;;;;15.45;72.25;98089.09;5086360;27;45741;-75
2023/01/17 10:02:15;;;;;;;;;11.00;9.67;;;;;15.57;72.34;98105.66;5081461;27;46395;-77
2023/01/17 10:05:01;;;;;;;;;12.67;11.00;;;;;15.55;72.20;98094.41;5080909;27;45475;-76
2023/01/17 10:07:29;;;;;;;;;11.67;9.33;;;;;15.58;72.73;98095.75;5080205;27;45738;-77
2023/01/17 10:10:17;;;;;;;;;8.33;8.33;;;;;15.75;72.55;98122.97;5080802;27;48073;-75
2023/01/17 10:13:22;;;;;;;;;13.00;10.00;;;;;15.78;72.85;98118.97;5098724;27;45414;-74
2023/01/17 10:16:27;;;;;;;;;15.33;12.00;;;;;15.81;72.50;98118.44;5070528;27;46167;-75
2023/01/17 10:19:09;;;;;;;;;11.00;9.00;;;;;15.75;71.31;98125.66;5098899;27;45215;-76
2023/01/17 10:21:48;;;;;;;;;11.00;10.67;;;;;15.67;72.09;98126.25;5098832;27;45323;-75
2023/01/17 10:24:23;;;;;;;;;21.67;19.00;;;;;15.72;72.71;98120.88;5080059;27;45387;-75
2023/01/17 10:26:52;;;;;;;;;12.67;11.00;;;;;15.77;72.63;98115.50;5092738;27;45454;-76
2023/01/17 10:29:22;;;;;;;;;9.67;9.67;;;;;15.94;72.49;98132.31;5102622;27;45339;-75
2023/01/17 10:31:56;;;;;;;;;11.00;10.00;;;;;15.92;73.07;98127.22;5097205;27;48377;-75
2023/01/17 10:34:31;;;;;;;;;14.00;11.00;;;;;15.97;72.89;98121.88;5098617;27;45358;-75
2023/01/17 10:37:23;;;;;;;;;16.00;14.33;;;;;16.10;72.17;98120.47;5098479;27;45309;-75
2023/01/17 10:39:53;;;;;;;;;3.67;2.67;;;;;16.02;71.58;98124.53;5089583;27;45386;-76
2023/01/17 10:42:28;;;;;;;;;0.00;0.00;;;;;15.92;71.89;98113.03;5102235;27;45584;-75
2023/01/17 10:45:27;;;;;;;;;8.00;8.00;;;;;15.97;71.83;98124.56;5083573;27;45397;-76
2023/01/17 10:48:19;;;;;;;;;8.00;7.00;;;;;15.93;72.09;98123.47;5102098;27;45287;-75
2023/01/17 10:51:01;;;;;;;;;8.00;6.33;;;;;15.96;71.65;98127.47;5102322;27;45532;-76
2023/01/17 10:53:32;;;;;;;;;8.00;6.33;;;;;15.96;71.39;98130.16;5101905;27;45458;-75
2023/01/17 10:56:00;;;;;;;;;9.00;7.00;;;;;15.91;71.88;98114.91;5101967;27;45469;-75
2023/01/17 10:58:25;;;;;;;;;8.67;8.33;;;;;15.97;72.01;98113.84;5100827;27;45390;-75
2023/01/17 11:01:01;;;;;;;;;9.00;7.67;;;;;15.94;72.08;98087.56;5102008;27;45341;-75
2023/01/17 11:03:27;;;;;;;;;7.33;7.00;;;;;16.09;71.56;98104.69;5101879;27;45470;-75
2023/01/17 11:06:19;;;;;;;;;11.33;9.00;;;;;16.19;71.73;98104.63;5101687;27;45299;-74
2023/01/17 11:08:53;;;;;;;;;8.67;7.00;;;;;16.17;72.09;98092.59;5101678;27;45393;-75
2023/01/17 11:11:22;;;;;;;;;9.33;9.33;;;;;16.30;71.76;98097.34;5101741;27;45358;-75
2023/01/17 11:13:50;;;;;;;;;8.00;8.00;;;;;16.25;71.26;98098.16;5083219;27;46338;-76
2023/01/17 11:16:22;;;;;;;;;16.00;15.00;;;;;16.14;71.20;98081.34;5100094;27;45366;-75
2023/01/17 11:19:05;;;;;;;;;11.00;10.00;;;;;16.22;71.22;98090.66;5092852;27;45480;-75
2023/01/17 11:21:31;;;;;;;;;9.33;9.33;;;;;16.01;70.65;98074.72;5084354;27;45412;-75
2023/01/17 11:24:09;;;;;;;;;10.33;9.00;;;;;16.02;70.63;98087.03;5078621;27;47193;-75
2023/01/17 11:26:36;;;;;;;;;12.67;11.33;;;;;15.95;71.93;98075.00;5088836;27;46015;-75
2023/01/17 11:29:27;;;;;;;;;10.33;10.33;;;;;15.96;71.96;98087.31;5084247;27;45516;-75
2023/01/17 11:31:55;;;;;;;;;12.33;10.67;;;;;15.97;72.80;98079.03;5093901;27;45400;-76
2023/01/17 11:34:25;;;;;;;;;11.00;9.00;;;;;15.99;71.62;98084.91;5083470;27;46545;-75
2023/01/17 11:37:17;;;;;;;;;10.67;10.67;;;;;15.98;71.96;98080.63;5077536;27;46046;-75
2023/01/17 11:39:46;;;;;;;;;11.33;10.00;;;;;16.00;71.34;98083.03;5085281;27;45398;-75
2023/01/17 11:42:33;;;;;;;;;10.00;10.00;;;;;15.97;71.01;98075.53;5091318;27;45986;-75
2023/01/17 11:45:20;;;;;;;;;12.33;11.67;;;;;15.98;71.63;98077.16;5089763;27;46400;-75
2023/01/17 11:47:45;;;;;;;;;8.33;8.33;;;;;15.98;71.61;98067.22;5068436;27;45352;-75
2023/01/17 11:50:25;;;;;;;;;11.33;10.33;;;;;16.02;70.81;98065.59;5083268;27;45290;-76
2023/01/17 11:52:51;;;;;;;;;9.67;8.67;;;;;16.01;70.91;98057.81;5085096;27;45497;-75
2023/01/17 11:55:16;;;;;;;;;11.00;10.67;;;;;16.14;70.48;98070.63;5080544;27;48298;-76
2023/01/17 11:57:42;;;;;;;;;11.33;11.00;;;;;16.13;70.85;98058.31;5088159;27;45334;-75
2023/01/17 12:00:26;;;;;;;;;13.33;10.33;;;;;16.24;70.46;98069.78;5093349;27;45361;-76
2023/01/17 12:02:54;;;;;;;;;11.00;10.00;;;;;16.27;70.61;98063.06;5086024;27;46988;-76
2023/01/17 12:06:00;;;;;;;;;11.67;10.00;;;;;16.17;70.26;98055.88;5093092;27;45337;-76
2023/01/17 12:08:50;;;;;;;;;11.00;10.00;;;;;16.20;69.95;98062.56;5067818;27;46103;-75
2023/01/17 12:11:27;;;;;;;;;11.00;10.00;;;;;16.03;70.25;98035.06;5087372;27;45500;-76
2023/01/17 12:14:10;;;;;;;;;11.00;10.00;;;;;16.18;70.07;98043.28;5081514;27;45493;-75
2023/01/17 12:16:49;;;;;;;;;10.00;10.00;;;;;16.20;69.97;98043.81;5088753;27;46411;-74
2023/01/17 12:19:41;;;;;;;;;13.33;10.00;;;;;16.18;69.42;98040.59;5067254;28;45370;-76
2023/01/17 12:22:33;;;;;;;;;10.33;10.33;;;;;16.08;69.22;98050.31;5098243;27;45435;-75
2023/01/17 12:25:54;;;;;;;;;10.00;9.00;;;;;16.07;68.85;98043.34;5100740;27;45305;-76
2023/01/17 12:28:25;;;;;;;;;8.33;7.67;;;;;16.09;69.52;98049.22;5018177;28;45779;-75
2023/01/17 12:31:33;;;;;;;;;12.67;11.00;;;;;16.05;69.20;98020.59;5097942;27;45287;-75
2023/01/17 12:34:28;;;;;;;;;7.00;5.00;;;;;16.18;70.27;98045.94;5081601;27;45436;-76
2023/01/17 12:37:01;;;;;;;;;9.67;7.33;;;;;16.24;69.44;98036.81;5100238;27;45334;-76
2023/01/17 12:39:40;;;;;;;;;9.33;9.33;;;;;16.21;69.49;98032.00;5100478;27;46121;-75
2023/01/17 12:42:18;;;;;;;;;10.67;9.33;;;;;16.28;69.39;98030.63;5100182;27;45279;-76
2023/01/17 12:45:03;;;;;;;;;12.00;11.00;;;;;16.22;69.13;98026.38;5100388;27;45440;-75
2023/01/17 12:47:33;;;;;;;;;10.00;10.00;;;;;16.19;69.22;98016.19;5100303;27;45444;-75
2023/01/17 12:50:24;;;;;;;;;9.67;9.00;;;;;16.32;69.29;98019.34;5081778;27;47922;-75
2023/01/17 12:53:25;;;;;;;;;10.00;10.00;;;;;16.35;68.71;98021.47;5099683;27;45354;-76
2023/01/17 12:56:10;;;;;;;;;4.00;3.00;;;;;16.39;68.63;98009.09;5082015;27;45397;-76